KOYM

Details ICAO KOYM
Name ST MARYS MUNI
Region United States
Timezone America/New_York (UTC-4.0)
Plans Departing 2
Arriving 1
Stats Elevation 1,934 ft / 589 m (AMSL)
Location 41.412484° -78.502643°
Runways 1
Magnetic Variation 10.491° W
Sunrise 2018-05-26 09:47:37 UTC / 2018-05-26 05:47:37 Local
Sunset 2018-05-27 00:37:25 UTC / 2018-05-26 20:37:25 Local
Advertisement - Login to hide

Runways

ID Width Length Bearing (true) Bearing (mag) Surface Threshold Offset Overrun Length
10 75 ft / 23 m 4,291 ft / 1,308 m 89.98° 100.47° Asphalt 0 ft / 0 m 0 ft / 0 m
28 75 ft / 23 m 4,291 ft / 1,308 m 269.99° 280.48° Asphalt 0 ft / 0 m 0 ft / 0 m

Map

Weather


0- 5 10 15 20 25 30 35+ Temperature / ° C

Clouds and Precipitation
Forecast for 2018-05-27 00:00 UTC. Updated 3 hours ago

Ground ~20,000 ft ~40,000 ft Winds

METAR

KOYM 270135Z AUTO 00000KT 10SM -RA OVC065 20/15 A2996 RMK AO2

TAF

Not found

Frequencies

Recorded 118.05 MHz AWOS 3
Clearance 121.30 MHz ALTOONA RDO CLNC DEL
Unicom 122.70 MHz CTAF/UNICOM
Warning: Do not use this data for real-world aviation or navigation. No guarantee of current accuracy is given.